createdAt,value
2023-05-16T00:02:36.732Z,72.57
2023-05-16T00:05:38.557Z,72.63
2023-05-16T00:08:40.381Z,73.29
2023-05-16T00:11:41.827Z,73.47
2023-05-16T00:14:43.677Z,73.73
2023-05-16T00:17:45.224Z,73.39
2023-05-16T00:20:47.034Z,73.29
2023-05-16T00:23:48.602Z,72.95
2023-05-16T00:26:50.172Z,73.23
2023-05-16T00:29:51.777Z,73.00
2023-05-16T00:32:55.136Z,72.90
2023-05-16T00:35:56.754Z,73.43
2023-05-16T00:38:58.308Z,74.41
2023-05-16T00:42:00.080Z,74.28
2023-05-16T00:45:01.646Z,73.87
2023-05-16T00:48:03.470Z,73.55
2023-05-16T00:51:05.254Z,73.87
2023-05-16T00:54:07.260Z,73.54
2023-05-16T00:57:08.804Z,73.62
2023-05-16T01:00:10.960Z,73.60
2023-05-16T01:03:12.696Z,74.17
2023-05-16T01:06:14.345Z,74.01
2023-05-16T01:09:16.074Z,75.27
2023-05-16T01:12:26.591Z,76.35
2023-05-16T01:15:39.864Z,76.21
2023-05-16T01:18:50.653Z,75.44
2023-05-16T01:22:01.521Z,74.98
2023-05-16T01:25:17.940Z,74.85
2023-05-16T01:28:20.458Z,74.81
2023-05-16T01:31:23.339Z,74.62
2023-05-16T01:34:25.125Z,74.82
2023-05-16T01:37:35.908Z,74.42
2023-05-16T01:40:59.700Z,74.47
2023-05-16T01:44:08.090Z,74.16
2023-05-16T01:47:12.325Z,74.13
2023-05-16T01:50:15.516Z,74.13
2023-05-16T01:53:22.065Z,74.21
2023-05-16T01:56:24.328Z,74.18
2023-05-16T01:59:26.199Z,74.25
2023-05-16T02:02:29.447Z,74.23
2023-05-16T02:05:31.067Z,74.25
2023-05-16T02:08:32.730Z,74.21
2023-05-16T02:11:34.268Z,74.05
2023-05-16T02:14:35.830Z,74.27
2023-05-16T02:17:37.307Z,74.67
2023-05-16T02:20:38.999Z,74.65
2023-05-16T02:23:40.814Z,74.75
2023-05-16T02:26:42.491Z,74.90
2023-05-16T02:29:44.064Z,74.79
2023-05-16T02:32:45.980Z,74.79
2023-05-16T02:35:47.671Z,74.89
2023-05-16T02:38:49.117Z,74.95
2023-05-16T02:41:50.620Z,75.28
2023-05-16T02:44:52.052Z,75.49
2023-05-16T02:47:53.668Z,75.39
2023-05-16T02:50:55.270Z,75.40
2023-05-16T02:53:57.266Z,75.13
2023-05-16T02:56:58.989Z,75.33
2023-05-16T03:00:00.981Z,75.59
2023-05-16T03:03:02.881Z,75.68
2023-05-16T03:06:04.530Z,75.99
2023-05-16T03:09:06.229Z,75.37
2023-05-16T03:12:07.886Z,75.26
2023-05-16T03:15:10.000Z,75.17
2023-05-16T03:18:11.738Z,75.17
2023-05-16T03:21:13.444Z,74.91
2023-05-16T03:24:15.079Z,74.66
2023-05-16T03:27:16.851Z,74.65
2023-05-16T03:30:19.835Z,74.58
2023-05-16T03:33:21.705Z,74.66
2023-05-16T03:36:23.390Z,74.56
2023-05-16T03:39:25.144Z,74.56
2023-05-16T03:42:26.697Z,74.47
2023-05-16T03:45:30.157Z,74.49
2023-05-16T03:48:31.972Z,73.91
2023-05-16T03:51:33.556Z,73.83
2023-05-16T03:54:35.440Z,73.77
2023-05-16T03:57:38.248Z,73.87
2023-05-16T04:00:39.925Z,73.88
2023-05-16T04:03:41.665Z,74.04
2023-05-16T04:06:43.743Z,73.81
2023-05-16T04:09:45.485Z,73.79
2023-05-16T04:12:47.437Z,74.38
2023-05-16T04:15:49.043Z,74.45
2023-05-16T04:18:53.648Z,74.14
2023-05-16T04:21:55.296Z,73.97
2023-05-16T04:24:56.885Z,73.74
2023-05-16T04:27:58.606Z,73.98
2023-05-16T04:31:00.215Z,73.84
2023-05-16T04:34:02.015Z,73.59
2023-05-16T04:37:04.906Z,73.56
2023-05-16T04:40:07.362Z,73.69
2023-05-16T04:43:09.254Z,73.67
2023-05-16T04:46:10.940Z,72.96
2023-05-16T04:49:12.490Z,73.26
2023-05-16T04:52:17.264Z,73.51
2023-05-16T04:55:18.836Z,73.00
2023-05-16T04:58:20.896Z,72.28
2023-05-16T05:01:22.466Z,72.26
2023-05-16T05:04:24.790Z,72.29
2023-05-16T05:07:26.413Z,72.16
2023-05-16T05:10:28.428Z,72.26
2023-05-16T05:13:30.004Z,72.46
2023-05-16T05:16:31.844Z,72.31
2023-05-16T05:19:33.485Z,71.90
2023-05-16T05:22:35.087Z,71.82
2023-05-16T05:25:37.866Z,71.31
2023-05-16T05:28:40.900Z,71.36
2023-05-16T05:31:44.008Z,71.32
2023-05-16T05:34:45.699Z,70.93
2023-05-16T05:37:47.690Z,70.53
2023-05-16T05:40:49.789Z,70.41
2023-05-16T05:43:51.435Z,70.88
2023-05-16T05:46:52.995Z,70.80
2023-05-16T05:49:54.605Z,70.25
2023-05-16T05:52:56.262Z,69.94
2023-05-16T05:55:57.776Z,69.78
2023-05-16T05:58:59.338Z,69.74
2023-05-16T06:02:00.978Z,69.35
2023-05-16T06:05:02.789Z,68.84
2023-05-16T06:08:04.544Z,69.00
2023-05-16T06:11:06.386Z,69.24
2023-05-16T06:14:08.229Z,69.39
2023-05-16T06:17:09.899Z,69.55
2023-05-16T06:20:12.127Z,69.56
2023-05-16T06:23:13.816Z,69.57
2023-05-16T06:26:15.541Z,68.60
2023-05-16T06:29:17.154Z,68.16
2023-05-16T06:32:18.885Z,68.18
2023-05-16T06:35:20.453Z,68.26
2023-05-16T06:38:21.972Z,68.19
2023-05-16T06:41:23.637Z,67.96
2023-05-16T06:44:25.396Z,67.64
2023-05-16T06:47:27.029Z,65.80
2023-05-16T06:50:28.670Z,65.91
2023-05-16T06:53:30.305Z,66.36
2023-05-16T06:56:32.482Z,66.10
2023-05-16T06:59:34.985Z,65.89
2023-05-16T07:02:36.635Z,63.47
2023-05-16T07:05:38.524Z,64.90
2023-05-16T07:08:40.095Z,63.73
2023-05-16T07:11:41.705Z,63.53
2023-05-16T07:14:43.414Z,62.60
2023-05-16T07:17:45.093Z,63.00
2023-05-16T07:20:46.758Z,62.41
2023-05-16T07:23:48.463Z,61.43
2023-05-16T07:26:50.107Z,60.56
2023-05-16T07:29:51.915Z,61.26
2023-05-16T07:32:53.577Z,61.78
2023-05-16T07:36:12.200Z,62.00
2023-05-16T07:39:17.562Z,60.56
2023-05-16T07:42:19.169Z,59.54
2023-05-16T07:45:21.057Z,60.90
2023-05-16T07:48:22.848Z,61.51
2023-05-16T07:51:24.456Z,60.77
2023-05-16T07:54:26.041Z,60.19
2023-05-16T07:57:27.861Z,60.11
2023-05-16T08:00:29.445Z,59.89
2023-05-16T08:03:31.310Z,58.65
2023-05-16T08:06:33.206Z,57.05
2023-05-16T08:09:35.349Z,58.82
2023-05-16T08:12:36.980Z,59.22
2023-05-16T08:15:38.682Z,58.21
2023-05-16T08:18:40.451Z,57.99
2023-05-16T08:21:42.214Z,57.07
2023-05-16T08:24:43.863Z,57.41
2023-05-16T08:27:46.857Z,57.98
2023-05-16T08:30:48.511Z,56.74
2023-05-16T08:33:50.082Z,56.74
2023-05-16T08:36:51.675Z,56.17
2023-05-16T08:39:53.450Z,54.02
2023-05-16T08:42:55.202Z,55.13
2023-05-16T08:45:57.133Z,53.43
2023-05-16T08:49:00.536Z,54.37
2023-05-16T08:52:03.396Z,55.17
2023-05-16T08:55:10.728Z,53.99
2023-05-16T08:58:13.366Z,55.41
2023-05-16T09:01:15.930Z,54.38
2023-05-16T09:04:17.554Z,54.51
2023-05-16T09:07:19.193Z,54.91
2023-05-16T09:10:21.336Z,55.53
2023-05-16T09:13:26.872Z,55.51
2023-05-16T09:16:28.661Z,55.78
2023-05-16T09:19:38.694Z,53.57
2023-05-16T09:22:41.581Z,54.01
2023-05-16T09:25:44.104Z,53.23
2023-05-16T09:28:45.928Z,53.17
2023-05-16T09:31:49.696Z,52.97
2023-05-16T09:34:53.762Z,53.46
2023-05-16T09:37:55.538Z,53.71
2023-05-16T09:40:57.224Z,52.99
2023-05-16T09:43:58.806Z,53.18
2023-05-16T09:47:01.542Z,52.60
2023-05-16T09:50:03.169Z,52.65
2023-05-16T09:53:05.470Z,53.00
2023-05-16T09:56:14.483Z,53.24
2023-05-16T09:59:16.151Z,53.08
2023-05-16T10:02:18.130Z,52.69
2023-05-16T10:05:20.085Z,52.24
2023-05-16T10:08:24.102Z,51.92
2023-05-16T10:11:25.834Z,50.72
2023-05-16T10:14:27.508Z,51.62
2023-05-16T10:17:31.397Z,52.14
2023-05-16T10:20:33.098Z,51.76
2023-05-16T10:23:34.969Z,52.09
2023-05-16T10:26:36.689Z,51.62
2023-05-16T10:29:53.002Z,51.47
2023-05-16T10:32:56.804Z,51.33
2023-05-16T10:35:58.485Z,51.02
2023-05-16T10:39:00.598Z,50.71
2023-05-16T10:42:02.708Z,50.74
2023-05-16T10:45:18.528Z,49.99
2023-05-16T10:48:29.397Z,50.48
2023-05-16T10:51:38.298Z,49.92
2023-05-16T10:54:41.784Z,49.67
2023-05-16T10:57:44.677Z,49.39
2023-05-16T11:00:47.864Z,49.72
2023-05-16T11:03:59.066Z,49.55
2023-05-16T11:07:01.432Z,49.56
2023-05-16T11:10:15.957Z,49.36
2023-05-16T11:13:24.649Z,49.55
2023-05-16T11:16:30.397Z,49.70
2023-05-16T11:19:52.389Z,50.08
2023-05-16T11:23:18.156Z,50.05
2023-05-16T11:26:20.158Z,50.20
2023-05-16T11:29:22.393Z,50.42
2023-05-16T11:32:24.087Z,50.50
2023-05-16T11:35:25.716Z,50.52
2023-05-16T11:38:30.587Z,50.42
2023-05-16T11:41:32.333Z,50.72
2023-05-16T11:44:33.983Z,50.96
2023-05-16T11:47:40.037Z,51.03
2023-05-16T11:50:41.721Z,51.24
2023-05-16T11:53:43.352Z,51.47
2023-05-16T11:56:45.430Z,51.74
2023-05-16T11:59:47.019Z,52.06
2023-05-16T12:02:49.529Z,52.46
2023-05-16T12:05:55.363Z,52.71
2023-05-16T12:09:00.155Z,52.99
2023-05-16T12:12:05.288Z,53.25
2023-05-16T12:15:08.864Z,53.28
2023-05-16T12:18:11.235Z,53.55
2023-05-16T12:21:13.558Z,53.25
2023-05-16T12:24:15.690Z,52.91
2023-05-16T12:27:25.198Z,52.45
2023-05-16T12:30:28.440Z,52.51
2023-05-16T12:33:30.451Z,53.21
2023-05-16T12:36:34.296Z,53.28
2023-05-16T12:39:38.812Z,53.20
2023-05-16T12:42:40.468Z,53.28
2023-05-16T12:45:42.312Z,53.48
2023-05-16T12:48:43.996Z,53.91
2023-05-16T12:51:50.063Z,53.84
2023-05-16T12:54:51.631Z,54.13
2023-05-16T12:57:55.422Z,54.37
2023-05-16T13:00:57.151Z,54.21
2023-05-16T13:03:59.078Z,54.50
2023-05-16T13:07:00.852Z,55.21
2023-05-16T13:10:02.962Z,55.34
2023-05-16T13:13:04.514Z,55.62
2023-05-16T13:16:06.786Z,55.50
2023-05-16T13:19:08.556Z,55.71
2023-05-16T13:22:10.185Z,55.99
2023-05-16T13:25:12.116Z,56.11
2023-05-16T13:28:13.944Z,56.35
2023-05-16T13:31:15.529Z,56.32
2023-05-16T13:34:17.150Z,56.48
2023-05-16T13:37:19.238Z,56.61
2023-05-16T13:40:20.943Z,56.78
2023-05-16T13:43:22.723Z,56.84
2023-05-16T13:46:24.426Z,56.82
2023-05-16T13:49:26.285Z,56.79
2023-05-16T13:52:27.938Z,57.07
2023-05-16T13:55:29.820Z,57.22
2023-05-16T13:58:31.917Z,57.30
2023-05-16T14:01:33.625Z,57.46
2023-05-16T14:04:35.466Z,57.64
2023-05-16T14:07:37.098Z,57.77
2023-05-16T14:10:38.682Z,58.00
2023-05-16T14:13:40.332Z,57.96
2023-05-16T14:16:42.185Z,58.46
2023-05-16T14:19:44.001Z,58.65
2023-05-16T14:22:45.768Z,58.54
2023-05-16T14:25:47.417Z,58.42
2023-05-16T14:28:49.069Z,58.67
2023-05-16T14:31:50.732Z,58.85
2023-05-16T14:34:52.352Z,59.36
2023-05-16T14:37:54.304Z,59.35
2023-05-16T14:40:55.891Z,59.20
2023-05-16T14:43:57.510Z,59.34
2023-05-16T14:46:59.434Z,59.31
2023-05-16T14:50:01.053Z,59.12
2023-05-16T14:53:02.799Z,59.11
2023-05-16T14:56:04.777Z,59.32
2023-05-16T14:59:06.491Z,59.33
2023-05-16T15:02:08.179Z,59.30
2023-05-16T15:05:10.835Z,59.28
2023-05-16T15:08:12.623Z,59.53
2023-05-16T15:11:16.905Z,59.59
2023-05-16T15:14:18.621Z,59.73
2023-05-16T15:17:23.471Z,59.76
2023-05-16T15:20:25.262Z,60.11
2023-05-16T15:23:27.091Z,60.14
2023-05-16T15:26:29.554Z,59.97
2023-05-16T15:29:31.293Z,60.25
2023-05-16T15:32:32.908Z,60.43
2023-05-16T15:35:34.694Z,60.75
2023-05-16T15:38:36.387Z,61.02
2023-05-16T15:44:45.177Z,61.38
2023-05-16T15:47:47.130Z,61.66
2023-05-16T15:50:48.776Z,61.99
2023-05-16T15:53:50.550Z,62.23
2023-05-16T15:56:52.276Z,62.61
2023-05-16T15:59:53.936Z,63.23
2023-05-16T16:02:55.595Z,64.42
2023-05-16T16:05:57.285Z,64.96
2023-05-16T16:08:58.918Z,65.15
2023-05-16T16:12:00.490Z,65.14
2023-05-16T16:15:02.248Z,65.23
2023-05-16T16:18:04.152Z,65.35
2023-05-16T16:21:05.946Z,65.62
2023-05-16T16:24:07.609Z,65.85
2023-05-16T16:27:09.295Z,66.06
2023-05-16T16:30:11.715Z,66.28
2023-05-16T16:33:13.396Z,66.43
2023-05-16T16:36:16.328Z,66.52
2023-05-16T16:39:18.112Z,66.74
2023-05-16T16:42:19.805Z,66.85
2023-05-16T16:45:22.601Z,67.04
2023-05-16T16:48:24.367Z,67.06
2023-05-16T16:51:28.575Z,66.98
2023-05-16T16:54:30.288Z,67.22
2023-05-16T16:57:31.941Z,67.28
2023-05-16T17:00:33.557Z,67.23
2023-05-16T17:03:35.225Z,67.29
2023-05-16T17:06:36.964Z,67.23
2023-05-16T17:09:38.594Z,67.24
2023-05-16T17:12:40.393Z,67.18
2023-05-16T17:15:42.085Z,67.50
2023-05-16T17:18:43.873Z,67.48
2023-05-16T17:21:45.699Z,67.68
2023-05-16T17:24:47.461Z,67.60
2023-05-16T17:27:49.089Z,67.43
2023-05-16T17:30:50.766Z,67.66
2023-05-16T17:33:52.415Z,67.16
2023-05-16T17:36:54.249Z,67.23
2023-05-16T17:39:56.027Z,67.72
2023-05-16T17:42:57.902Z,67.90
2023-05-16T17:45:59.488Z,68.08
2023-05-16T17:49:01.279Z,68.38
2023-05-16T17:52:03.285Z,68.44
2023-05-16T17:55:06.642Z,68.46
2023-05-16T17:58:08.380Z,68.47
2023-05-16T18:01:10.308Z,68.67
2023-05-16T18:04:12.268Z,68.79
2023-05-16T18:07:14.092Z,69.02
2023-05-16T18:10:15.815Z,69.02
2023-05-16T18:13:17.609Z,68.98
2023-05-16T18:16:19.434Z,69.13
2023-05-16T18:19:21.132Z,69.18
2023-05-16T18:22:22.904Z,69.25
2023-05-16T18:25:24.517Z,69.34
2023-05-16T18:28:26.465Z,69.54
2023-05-16T18:31:28.161Z,69.55
2023-05-16T18:34:29.877Z,69.62
2023-05-16T18:37:31.622Z,69.61
2023-05-16T18:40:33.435Z,69.40
2023-05-16T18:43:35.102Z,69.68
2023-05-16T18:46:38.008Z,70.01
2023-05-16T18:49:39.666Z,69.96
2023-05-16T18:52:41.373Z,70.15
2023-05-16T18:55:42.939Z,70.15
2023-05-16T18:58:44.710Z,70.28
2023-05-16T19:01:46.300Z,70.36
2023-05-16T19:04:48.100Z,70.44
2023-05-16T19:07:49.991Z,70.49
2023-05-16T19:10:51.917Z,70.45
2023-05-16T19:13:53.616Z,70.19
2023-05-16T19:16:56.588Z,70.67
2023-05-16T19:19:58.348Z,70.61
2023-05-16T19:23:00.353Z,70.66
2023-05-16T19:26:02.119Z,70.76
2023-05-16T19:29:03.917Z,70.91
2023-05-16T19:32:06.078Z,70.96
2023-05-16T19:35:08.059Z,71.00
2023-05-16T19:38:09.707Z,71.13
2023-05-16T19:41:11.311Z,71.28
2023-05-16T19:44:12.946Z,71.28
2023-05-16T19:47:14.661Z,71.50
2023-05-16T19:50:16.453Z,71.73
2023-05-16T19:53:22.043Z,71.74
2023-05-16T19:56:24.162Z,71.71
2023-05-16T19:59:25.895Z,71.67
2023-05-16T20:02:27.598Z,71.72
2023-05-16T20:05:29.682Z,71.70
2023-05-16T20:08:32.086Z,71.76
2023-05-16T20:11:33.890Z,71.70
2023-05-16T20:14:35.690Z,71.72
2023-05-16T20:17:41.079Z,71.84
2023-05-16T20:20:42.824Z,71.85
2023-05-16T20:23:45.249Z,72.02
2023-05-16T20:26:47.266Z,72.29
2023-05-16T20:29:49.085Z,72.35
2023-05-16T20:32:50.779Z,72.25
2023-05-16T20:35:52.573Z,72.46
2023-05-16T20:38:54.171Z,72.39
2023-05-16T20:41:55.772Z,72.62
2023-05-16T20:44:57.338Z,72.81
2023-05-16T20:47:59.124Z,72.76
2023-05-16T20:51:00.806Z,72.89
2023-05-16T20:54:02.602Z,72.96
2023-05-16T20:57:04.699Z,72.98
2023-05-16T21:00:07.039Z,72.80
2023-05-16T21:03:08.956Z,72.78
2023-05-16T21:06:10.717Z,72.94
2023-05-16T21:09:12.336Z,72.99
2023-05-16T21:12:13.973Z,72.85
2023-05-16T21:15:15.690Z,73.11
2023-05-16T21:18:17.562Z,73.08
2023-05-16T21:21:19.277Z,73.04
2023-05-16T21:24:20.978Z,73.09
2023-05-16T21:27:22.549Z,73.21
2023-05-16T21:30:24.168Z,73.27
2023-05-16T21:33:25.883Z,73.26
2023-05-16T21:36:27.612Z,73.29
2023-05-16T21:39:29.233Z,73.33
2023-05-16T21:42:30.865Z,73.35
2023-05-16T21:45:32.504Z,73.39
2023-05-16T21:48:34.198Z,73.38
2023-05-16T21:51:36.370Z,73.56
2023-05-16T21:54:37.929Z,73.52
2023-05-16T21:57:39.861Z,73.56
2023-05-16T22:00:41.495Z,73.75
2023-05-16T22:03:43.491Z,73.79
2023-05-16T22:06:45.400Z,73.87
2023-05-16T22:09:47.312Z,73.86
2023-05-16T22:12:48.977Z,73.76
2023-05-16T22:16:03.480Z,73.91
2023-05-16T22:19:06.620Z,73.85
2023-05-16T22:22:09.019Z,73.89
2023-05-16T22:25:10.653Z,73.90
2023-05-16T22:28:12.266Z,73.91
2023-05-16T22:31:13.971Z,73.90
2023-05-16T22:34:15.610Z,73.89
2023-05-16T22:37:17.279Z,73.93
2023-05-16T22:40:18.911Z,74.07
2023-05-16T22:43:23.596Z,74.18
2023-05-16T22:46:25.203Z,74.21
2023-05-16T22:49:26.931Z,74.41
2023-05-16T22:52:28.533Z,74.24
2023-05-16T22:55:30.400Z,74.33
2023-05-16T22:58:32.392Z,74.28
2023-05-16T23:01:34.836Z,74.35
2023-05-16T23:04:36.706Z,74.23
2023-05-16T23:07:38.502Z,74.36
2023-05-16T23:10:40.272Z,74.40
2023-05-16T23:13:42.049Z,74.46
2023-05-16T23:16:43.709Z,74.39
2023-05-16T23:19:45.603Z,74.57
2023-05-16T23:22:47.248Z,74.60
2023-05-16T23:25:48.857Z,74.59
2023-05-16T23:28:50.448Z,74.67
2023-05-16T23:31:52.028Z,74.69
2023-05-16T23:34:53.810Z,74.66
2023-05-16T23:37:55.608Z,74.75
2023-05-16T23:40:57.472Z,74.76
2023-05-16T23:43:59.209Z,74.72
2023-05-16T23:47:01.043Z,74.74
2023-05-16T23:50:03.148Z,74.78
2023-05-16T23:53:04.776Z,74.81
2023-05-16T23:56:06.408Z,74.75
2023-05-16T23:59:08.391Z,74.90
